createdAt,value
2018-07-16T00:00:39.758Z,75.25
2018-07-16T00:01:39.720Z,75.35
2018-07-16T00:02:39.676Z,75.82
2018-07-16T00:03:39.633Z,75.63
2018-07-16T00:04:39.592Z,76.21
2018-07-16T00:05:39.552Z,75.92
2018-07-16T00:06:39.510Z,76.02
2018-07-16T00:07:39.469Z,76.17
2018-07-16T00:08:39.426Z,76.12
2018-07-16T00:09:39.384Z,75.89
2018-07-16T00:10:39.344Z,76.02
2018-07-16T00:11:39.303Z,75.98
2018-07-16T00:12:39.260Z,75.79
2018-07-16T00:13:39.221Z,76.56
2018-07-16T00:14:39.250Z,76.07
2018-07-16T00:15:39.140Z,76.56
2018-07-16T00:16:39.095Z,76.07
2018-07-16T00:17:39.055Z,76.84
2018-07-16T00:18:39.017Z,76.56
2018-07-16T00:19:38.975Z,76.84
2018-07-16T00:20:38.936Z,76.46
2018-07-16T00:21:38.890Z,76.65
2018-07-16T00:22:38.849Z,76.56
2018-07-16T00:23:38.808Z,75.98
2018-07-16T00:24:38.768Z,76.65
2018-07-16T00:25:38.727Z,76.65
2018-07-16T00:26:38.686Z,76.65
2018-07-16T00:27:38.650Z,76.65
2018-07-16T00:28:38.603Z,76.56
2018-07-16T00:29:38.565Z,77.13
2018-07-16T00:30:38.521Z,76.84
2018-07-16T00:31:38.482Z,76.75
2018-07-16T00:32:38.439Z,77.13
2018-07-16T00:33:38.396Z,76.84
2018-07-16T00:34:38.354Z,77.33
2018-07-16T00:35:38.314Z,77.51
2018-07-16T00:36:38.270Z,77.51
2018-07-16T00:37:38.235Z,77.51
2018-07-16T00:38:38.189Z,77.04
2018-07-16T00:39:38.159Z,77.33
2018-07-16T00:40:38.118Z,77.61
2018-07-16T00:41:38.068Z,77.80
2018-07-16T00:42:38.026Z,77.61
2018-07-16T00:43:37.982Z,77.67
2018-07-16T00:44:37.945Z,77.33
2018-07-16T00:45:37.903Z,78.38
2018-07-16T00:46:37.865Z,77.58
2018-07-16T00:47:37.817Z,78.25
2018-07-16T00:48:37.776Z,77.76
2018-07-16T00:49:37.736Z,77.95
2018-07-16T00:50:37.700Z,77.58
2018-07-16T00:51:37.652Z,77.67
2018-07-16T00:52:37.612Z,78.34
2018-07-16T00:53:37.570Z,77.86
2018-07-16T00:54:37.529Z,77.95
2018-07-16T00:55:37.517Z,77.48
2018-07-16T00:56:37.447Z,78.05
2018-07-16T00:57:37.423Z,77.95
2018-07-16T00:58:37.366Z,77.38
2018-07-16T00:59:37.347Z,76.62
2018-07-16T01:00:37.278Z,77.09
2018-07-16T01:01:37.239Z,76.90
2018-07-16T01:02:37.199Z,77.29
2018-07-16T01:03:37.158Z,77.00
2018-07-16T01:04:37.112Z,76.94
2018-07-16T01:05:37.073Z,76.42
2018-07-16T01:06:37.032Z,76.81
2018-07-16T01:07:36.996Z,76.71
2018-07-16T01:08:36.951Z,76.04
2018-07-16T01:09:36.912Z,75.65
2018-07-16T01:10:36.868Z,76.23
2018-07-16T01:11:36.829Z,75.85
2018-07-16T01:12:36.789Z,76.14
2018-07-16T01:13:36.742Z,76.14
2018-07-16T01:14:36.704Z,76.62
2018-07-16T01:15:36.660Z,76.42
2018-07-16T01:16:36.617Z,77.33
2018-07-16T01:17:36.579Z,77.00
2018-07-16T01:18:36.540Z,76.42
2018-07-16T01:19:36.491Z,77.00
2018-07-16T01:20:36.451Z,76.81
2018-07-16T01:21:36.415Z,76.52
2018-07-16T01:22:36.371Z,77.00
2018-07-16T01:23:36.326Z,76.62
2018-07-16T01:24:36.307Z,76.90
2018-07-16T01:25:36.244Z,77.00
2018-07-16T01:26:36.206Z,77.00
2018-07-16T01:27:36.164Z,77.29
2018-07-16T01:28:36.124Z,76.71
2018-07-16T01:29:36.080Z,77.00
2018-07-16T01:30:36.039Z,76.81
2018-07-16T01:31:35.999Z,76.90
2018-07-16T01:32:35.956Z,76.90
2018-07-16T01:33:35.917Z,77.00
2018-07-16T01:34:35.874Z,76.71
2018-07-16T01:35:35.829Z,77.19
2018-07-16T01:36:35.788Z,77.48
2018-07-16T01:37:35.752Z,77.67
2018-07-16T01:38:35.706Z,77.00
2018-07-16T01:39:35.663Z,76.90
2018-07-16T01:40:35.626Z,77.09
2018-07-16T01:41:35.586Z,76.81
2018-07-16T01:42:35.542Z,76.81
2018-07-16T01:43:35.498Z,77.38
2018-07-16T01:44:35.458Z,77.19
2018-07-16T01:45:35.416Z,77.29
2018-07-16T01:46:35.378Z,76.81
2018-07-16T01:47:35.338Z,77.29
2018-07-16T01:48:35.291Z,76.62
2018-07-16T01:49:35.249Z,77.38
2018-07-16T01:50:35.211Z,76.23
2018-07-16T01:51:35.172Z,76.52
2018-07-16T01:52:35.125Z,76.42
2018-07-16T01:53:35.087Z,76.90
2018-07-16T01:54:35.045Z,77.19
2018-07-16T01:55:35.004Z,77.09
2018-07-16T01:56:34.965Z,76.42
2018-07-16T01:57:34.917Z,77.09
2018-07-16T01:58:34.878Z,77.00
2018-07-16T01:59:34.835Z,77.29
2018-07-16T02:00:34.796Z,76.90
2018-07-16T02:01:34.751Z,77.00
2018-07-16T02:02:34.711Z,77.00
2018-07-16T02:03:34.670Z,76.81
2018-07-16T02:04:34.628Z,76.90
2018-07-16T02:05:34.587Z,76.81
2018-07-16T02:06:34.547Z,77.00
2018-07-16T02:07:34.504Z,77.29
2018-07-16T02:08:34.463Z,77.19
2018-07-16T02:09:34.422Z,77.67
2018-07-16T02:10:34.381Z,77.19
2018-07-16T02:11:34.337Z,77.38
2018-07-16T02:12:34.299Z,77.38
2018-07-16T02:13:34.256Z,77.38
2018-07-16T02:14:34.211Z,77.58
2018-07-16T02:15:34.171Z,78.53
2018-07-16T02:16:34.132Z,77.67
2018-07-16T02:17:34.088Z,77.67
2018-07-16T02:18:34.049Z,78.05
2018-07-16T02:19:34.009Z,77.58
2018-07-16T02:20:33.965Z,77.67
2018-07-16T02:21:33.922Z,77.48
2018-07-16T02:22:33.881Z,77.67
2018-07-16T02:23:33.843Z,77.67
2018-07-16T02:24:33.800Z,77.58
2018-07-16T02:25:33.756Z,77.86
2018-07-16T02:26:33.718Z,77.95
2018-07-16T02:27:33.678Z,77.48
2018-07-16T02:28:33.634Z,77.95
2018-07-16T02:29:33.590Z,77.73
2018-07-16T02:30:33.550Z,77.76
2018-07-16T02:31:33.508Z,77.76
2018-07-16T02:32:33.467Z,77.86
2018-07-16T02:33:33.426Z,77.86
2018-07-16T02:34:33.385Z,78.44
2018-07-16T02:35:33.341Z,78.25
2018-07-16T02:36:33.302Z,78.44
2018-07-16T02:37:33.260Z,78.15
2018-07-16T02:38:33.218Z,78.11
2018-07-16T02:39:33.174Z,78.20
2018-07-16T02:40:33.136Z,78.25
2018-07-16T02:41:33.094Z,78.82
2018-07-16T02:42:33.050Z,78.49
2018-07-16T02:43:33.010Z,78.40
2018-07-16T02:44:32.970Z,78.72
2018-07-16T02:45:32.928Z,78.02
2018-07-16T02:46:32.883Z,78.49
2018-07-16T02:47:32.854Z,78.59
2018-07-16T02:48:32.806Z,78.88
2018-07-16T02:49:32.765Z,78.97
2018-07-16T02:50:32.720Z,78.88
2018-07-16T02:51:32.681Z,79.26
2018-07-16T02:52:32.637Z,79.07
2018-07-16T02:53:32.597Z,79.07
2018-07-16T02:54:32.550Z,78.97
2018-07-16T02:55:32.515Z,79.07
2018-07-16T02:56:32.652Z,79.07
2018-07-16T02:57:32.429Z,79.83
2018-07-16T02:58:32.389Z,79.45
2018-07-16T02:59:32.365Z,79.45
2018-07-16T03:00:32.312Z,79.45
2018-07-16T03:01:32.262Z,79.55
2018-07-16T03:02:32.220Z,79.55
2018-07-16T03:03:32.174Z,79.16
2018-07-16T03:04:32.133Z,79.26
2018-07-16T03:05:32.093Z,79.36
2018-07-16T03:06:32.053Z,79.64
2018-07-16T03:07:32.007Z,79.64
2018-07-16T03:08:31.970Z,79.83
2018-07-16T03:09:31.924Z,79.55
2018-07-16T03:10:31.885Z,79.55
2018-07-16T03:11:31.844Z,79.74
2018-07-16T03:12:31.802Z,80.32
2018-07-16T03:13:31.759Z,80.22
2018-07-16T03:14:31.715Z,79.55
2018-07-16T03:15:31.674Z,79.64
2018-07-16T03:16:31.638Z,79.64
2018-07-16T03:17:31.596Z,79.45
2018-07-16T03:18:31.552Z,80.12
2018-07-16T03:19:31.510Z,80.32
2018-07-16T03:20:31.467Z,79.93
2018-07-16T03:21:31.435Z,80.03
2018-07-16T03:22:31.384Z,80.22
2018-07-16T03:23:31.342Z,80.22
2018-07-16T03:24:31.299Z,80.41
2018-07-16T03:25:31.262Z,80.60
2018-07-16T03:26:31.217Z,80.60
2018-07-16T03:27:31.174Z,80.70
2018-07-16T03:28:31.135Z,80.60
2018-07-16T03:29:31.091Z,81.08
2018-07-16T03:30:31.049Z,81.46
2018-07-16T03:31:31.007Z,81.18
2018-07-16T03:32:30.969Z,81.18
2018-07-16T03:33:31.390Z,81.37
2018-07-16T03:34:30.883Z,80.94
2018-07-16T03:35:30.846Z,80.94
2018-07-16T03:36:30.796Z,81.37
2018-07-16T03:37:30.760Z,81.52
2018-07-16T03:38:30.713Z,81.37
2018-07-16T03:39:30.671Z,81.52
2018-07-16T03:40:30.632Z,81.71
2018-07-16T03:41:30.589Z,81.62
2018-07-16T03:42:30.546Z,81.71
2018-07-16T03:43:30.509Z,81.81
2018-07-16T03:44:30.464Z,81.71
2018-07-16T03:45:30.421Z,82.00
2018-07-16T03:46:30.378Z,82.38
2018-07-16T03:47:30.335Z,83.15
2018-07-16T03:48:30.297Z,82.86
2018-07-16T03:49:30.256Z,83.44
2018-07-16T03:50:30.212Z,83.25
2018-07-16T03:51:30.167Z,83.15
2018-07-16T03:52:30.129Z,83.15
2018-07-16T03:53:30.090Z,83.25
2018-07-16T03:54:30.274Z,82.96
2018-07-16T03:55:30.008Z,83.05
2018-07-16T03:56:29.962Z,83.25
2018-07-16T03:57:29.919Z,83.44
2018-07-16T03:58:29.876Z,83.34
2018-07-16T03:59:29.834Z,83.82
2018-07-16T04:00:29.797Z,83.53
2018-07-16T04:01:29.761Z,83.92
2018-07-16T04:02:29.864Z,83.53
2018-07-16T04:03:29.667Z,83.72
2018-07-16T04:04:29.625Z,84.11
2018-07-16T04:05:29.586Z,84.20
2018-07-16T04:06:29.544Z,83.82
2018-07-16T04:07:29.497Z,84.49
2018-07-16T04:08:29.462Z,84.11
2018-07-16T04:09:29.416Z,84.20
2018-07-16T04:10:29.373Z,84.01
2018-07-16T04:11:29.330Z,83.92
2018-07-16T04:12:29.288Z,84.68
2018-07-16T04:13:29.247Z,84.68
2018-07-16T04:14:29.205Z,84.78
2018-07-16T04:15:29.165Z,84.68
2018-07-16T04:16:29.124Z,84.68
2018-07-16T04:17:29.087Z,84.78
2018-07-16T04:18:29.037Z,84.49
2018-07-16T04:19:29.003Z,84.11
2018-07-16T04:20:29.006Z,84.11
2018-07-16T04:21:28.914Z,84.30
2018-07-16T04:22:28.872Z,84.01
2018-07-16T04:23:28.827Z,84.30
2018-07-16T04:24:28.791Z,84.30
2018-07-16T04:25:28.746Z,84.49
2018-07-16T04:26:28.704Z,84.11
2018-07-16T04:27:28.660Z,84.30
2018-07-16T04:28:28.620Z,84.30
2018-07-16T04:29:28.579Z,84.30
2018-07-16T04:30:28.535Z,83.63
2018-07-16T04:31:28.491Z,83.53
2018-07-16T04:32:28.454Z,83.72
2018-07-16T04:33:28.408Z,84.30
2018-07-16T04:34:28.369Z,84.30
2018-07-16T04:35:28.324Z,84.78
2018-07-16T04:36:28.283Z,84.88
2018-07-16T04:37:28.244Z,84.53
2018-07-16T04:38:28.201Z,84.15
2018-07-16T04:39:28.160Z,84.15
2018-07-16T04:40:28.117Z,84.68
2018-07-16T04:41:28.074Z,84.72
2018-07-16T04:42:28.032Z,84.53
2018-07-16T04:43:27.992Z,85.01
2018-07-16T04:44:27.947Z,84.34
2018-07-16T04:45:27.906Z,84.72
2018-07-16T04:46:27.869Z,84.91
2018-07-16T04:47:27.822Z,85.01
2018-07-16T04:48:27.781Z,84.72
2018-07-16T04:49:27.738Z,84.72
2018-07-16T04:50:27.700Z,84.91
2018-07-16T04:51:27.661Z,84.53
2018-07-16T04:52:27.615Z,85.01
2018-07-16T04:53:27.578Z,85.58
2018-07-16T04:54:27.531Z,85.39
2018-07-16T04:55:27.487Z,84.82
2018-07-16T04:56:27.452Z,84.82
2018-07-16T04:57:27.406Z,84.91
2018-07-16T04:58:27.377Z,84.63
2018-07-16T04:59:27.323Z,84.15
2018-07-16T05:00:27.283Z,84.15
2018-07-16T05:01:27.237Z,84.38
2018-07-16T05:02:27.195Z,83.76
2018-07-16T05:03:27.154Z,83.48
2018-07-16T05:04:27.116Z,83.81
2018-07-16T05:05:27.070Z,83.23
2018-07-16T05:06:27.028Z,83.04
2018-07-16T05:07:26.993Z,83.04
2018-07-16T05:08:26.945Z,83.61
2018-07-16T05:09:26.903Z,82.94
2018-07-16T05:10:26.862Z,82.56
2018-07-16T05:11:26.825Z,82.27
2018-07-16T05:12:26.777Z,82.75
2018-07-16T05:13:26.745Z,82.08
2018-07-16T05:14:26.696Z,81.98
2018-07-16T05:15:26.654Z,81.98
2018-07-16T05:16:26.614Z,82.08
2018-07-16T05:17:26.573Z,81.79
2018-07-16T05:18:26.670Z,81.98
2018-07-16T05:19:26.488Z,81.98
2018-07-16T05:20:26.450Z,81.98
2018-07-16T05:21:26.407Z,82.12
2018-07-16T05:22:26.364Z,81.45
2018-07-16T05:23:26.325Z,80.87
2018-07-16T05:24:26.288Z,81.64
2018-07-16T05:25:26.241Z,81.54
2018-07-16T05:26:26.196Z,81.54
2018-07-16T05:27:26.155Z,81.54
2018-07-16T05:28:26.115Z,81.45
2018-07-16T05:29:26.075Z,81.07
2018-07-16T05:30:26.036Z,81.16
2018-07-16T05:31:26.001Z,81.35
2018-07-16T05:32:26.299Z,81.45
2018-07-16T05:33:25.906Z,81.16
2018-07-16T05:34:25.865Z,81.26
2018-07-16T05:35:25.821Z,81.16
2018-07-16T05:36:25.782Z,80.87
2018-07-16T05:37:25.739Z,81.07
2018-07-16T05:38:25.700Z,80.68
2018-07-16T05:39:25.658Z,80.73
2018-07-16T05:40:25.615Z,80.87
2018-07-16T05:41:25.574Z,80.97
2018-07-16T05:42:25.537Z,80.05
2018-07-16T05:43:25.495Z,78.52
2018-07-16T05:44:25.452Z,78.90
2018-07-16T05:45:25.410Z,78.90
2018-07-16T05:46:25.370Z,78.70
2018-07-16T05:47:25.328Z,78.52
2018-07-16T05:48:25.285Z,78.03
2018-07-16T05:49:25.243Z,78.42
2018-07-16T05:50:25.204Z,78.03
2018-07-16T05:51:25.161Z,77.26
2018-07-16T05:52:25.124Z,76.88
2018-07-16T05:53:25.080Z,76.98
2018-07-16T05:54:25.085Z,77.11
2018-07-16T05:55:24.997Z,76.64
2018-07-16T05:56:24.956Z,76.88
2018-07-16T05:57:24.918Z,75.67
2018-07-16T05:58:24.874Z,76.44
2018-07-16T05:59:24.832Z,75.87
2018-07-16T06:00:24.792Z,76.54
2018-07-16T06:01:24.749Z,75.87
2018-07-16T06:02:24.709Z,75.29
2018-07-16T06:03:24.669Z,74.81
2018-07-16T06:04:24.634Z,75.87
2018-07-16T06:05:24.585Z,76.25
2018-07-16T06:06:24.547Z,76.06
2018-07-16T06:07:24.502Z,75.67
2018-07-16T06:08:24.463Z,76.29
2018-07-16T06:09:24.421Z,74.94
2018-07-16T06:10:24.382Z,74.27
2018-07-16T06:11:24.340Z,74.85
2018-07-16T06:12:24.296Z,75.04
2018-07-16T06:13:24.257Z,74.94
2018-07-16T06:14:24.272Z,74.85
2018-07-16T06:15:24.175Z,74.85
2018-07-16T06:16:24.133Z,74.94
2018-07-16T06:17:24.095Z,73.79
2018-07-16T06:18:24.053Z,73.60
2018-07-16T06:19:24.031Z,73.92
2018-07-16T06:20:24.027Z,73.92
2018-07-16T06:21:23.930Z,73.63
2018-07-16T06:22:23.891Z,74.21
2018-07-16T06:23:23.849Z,73.83
2018-07-16T06:24:23.807Z,73.73
2018-07-16T06:25:23.769Z,74.11
2018-07-16T06:26:23.728Z,73.25
2018-07-16T06:27:23.685Z,73.25
2018-07-16T06:28:23.646Z,72.58
2018-07-16T06:29:23.605Z,72.29
2018-07-16T06:30:23.565Z,72.90
2018-07-16T06:31:23.525Z,72.48
2018-07-16T06:32:23.548Z,72.03
2018-07-16T06:33:23.442Z,72.52
2018-07-16T06:34:23.402Z,70.98
2018-07-16T06:35:23.360Z,70.98
2018-07-16T06:36:23.321Z,70.98
2018-07-16T06:37:23.281Z,71.17
2018-07-16T06:38:23.241Z,70.98
2018-07-16T06:39:23.199Z,70.30
2018-07-16T06:40:23.227Z,70.50
2018-07-16T06:41:23.430Z,70.40
2018-07-16T06:42:23.077Z,70.68
2018-07-16T06:43:23.037Z,71.11
2018-07-16T06:44:22.997Z,71.59
2018-07-16T06:45:22.958Z,70.24
2018-07-16T06:46:22.919Z,70.43
2018-07-16T06:47:22.874Z,70.24
2018-07-16T06:48:22.835Z,70.53
2018-07-16T06:49:22.795Z,69.85
2018-07-16T06:50:22.754Z,69.09
2018-07-16T06:51:22.714Z,68.90
2018-07-16T06:52:22.676Z,68.03
2018-07-16T06:53:22.633Z,69.18
2018-07-16T06:54:22.602Z,69.89
2018-07-16T06:55:22.556Z,68.54
2018-07-16T06:56:22.514Z,68.64
2018-07-16T06:57:22.473Z,68.44
2018-07-16T06:58:22.434Z,68.35
2018-07-16T06:59:22.392Z,68.35
2018-07-16T07:00:22.359Z,68.35
2018-07-16T07:01:22.315Z,68.84
2018-07-16T07:02:22.286Z,67.87
2018-07-16T07:03:22.232Z,67.90
2018-07-16T07:04:22.191Z,67.61
2018-07-16T07:05:22.150Z,68.00
2018-07-16T07:06:22.111Z,67.52
2018-07-16T07:07:22.071Z,67.13
2018-07-16T07:08:22.032Z,67.61
2018-07-16T07:09:21.992Z,67.61
2018-07-16T07:10:21.960Z,67.33
2018-07-16T07:11:21.912Z,66.46
2018-07-16T07:12:21.872Z,66.46
2018-07-16T07:13:21.835Z,66.46
2018-07-16T07:14:21.796Z,66.27
2018-07-16T07:15:21.753Z,65.63
2018-07-16T07:16:21.711Z,66.20
2018-07-16T07:17:21.671Z,65.91
2018-07-16T07:18:21.635Z,65.72
2018-07-16T07:19:21.591Z,64.66
2018-07-16T07:20:21.554Z,64.37
2018-07-16T07:21:21.516Z,64.28
2018-07-16T07:22:21.474Z,65.05
2018-07-16T07:23:21.433Z,65.14
2018-07-16T07:24:21.408Z,66.04
2018-07-16T07:25:21.366Z,64.79
2018-07-16T07:26:21.322Z,63.82
2018-07-16T07:27:21.275Z,63.44
2018-07-16T07:28:21.235Z,63.44
2018-07-16T07:29:21.193Z,63.54
2018-07-16T07:30:21.157Z,64.02
2018-07-16T07:31:21.115Z,63.63
2018-07-16T07:32:21.077Z,64.11
2018-07-16T07:33:21.036Z,62.86
2018-07-16T07:34:21.017Z,63.37
2018-07-16T07:35:21.009Z,63.09
2018-07-16T07:36:20.917Z,63.28
2018-07-16T07:38:20.841Z,61.16
2018-07-16T07:39:20.806Z,59.52
2018-07-16T07:40:20.760Z,59.80
2018-07-16T07:41:20.721Z,61.47
2018-07-16T07:42:20.684Z,61.16
2018-07-16T07:43:20.643Z,60.80
2018-07-16T07:44:20.602Z,60.80
2018-07-16T07:45:20.569Z,60.80
2018-07-16T07:46:20.525Z,60.22
2018-07-16T07:47:20.485Z,60.71
2018-07-16T07:48:20.445Z,59.93
2018-07-16T07:49:20.406Z,60.51
2018-07-16T07:50:20.367Z,60.80
2018-07-16T07:51:20.328Z,59.96
2018-07-16T07:52:20.301Z,59.67
2018-07-16T07:53:20.250Z,59.77
2018-07-16T07:54:20.421Z,58.51
2018-07-16T07:55:20.627Z,58.70
2018-07-16T07:56:20.132Z,58.70
2018-07-16T07:57:20.096Z,58.45
2018-07-16T07:58:20.069Z,58.73
2018-07-16T07:59:20.017Z,57.77
2018-07-16T08:00:19.976Z,56.03
2018-07-16T08:01:19.942Z,56.03
2018-07-16T08:02:19.904Z,56.13
2018-07-16T08:03:19.876Z,55.07
2018-07-16T08:04:19.823Z,56.41
2018-07-16T08:05:19.785Z,55.38
2018-07-16T08:06:19.750Z,54.71
2018-07-16T08:07:19.710Z,54.99
2018-07-16T08:08:19.667Z,55.11
2018-07-16T08:09:19.627Z,55.70
2018-07-16T08:10:19.590Z,56.09
2018-07-16T08:11:19.552Z,54.53
2018-07-16T08:12:19.513Z,53.99
2018-07-16T08:13:19.475Z,55.05
2018-07-16T08:14:19.437Z,54.27
2018-07-16T08:15:19.400Z,53.99
2018-07-16T08:16:19.360Z,55.05
2018-07-16T08:17:19.321Z,54.01
2018-07-16T08:18:19.283Z,52.85
2018-07-16T08:19:19.271Z,53.23
2018-07-16T08:20:19.204Z,52.27
2018-07-16T08:21:19.172Z,52.39
2018-07-16T08:22:19.137Z,52.20
2018-07-16T08:23:19.094Z,52.39
2018-07-16T08:24:19.061Z,51.06
2018-07-16T08:25:19.017Z,51.42
2018-07-16T08:26:18.982Z,50.48
2018-07-16T08:27:18.942Z,50.48
2018-07-16T08:28:18.905Z,51.25
2018-07-16T08:29:18.863Z,50.31
2018-07-16T08:30:18.828Z,49.92
2018-07-16T08:31:18.794Z,48.57
2018-07-16T08:32:18.750Z,49.34
2018-07-16T08:33:18.771Z,49.56
2018-07-16T08:34:18.675Z,48.59
2018-07-16T08:35:18.635Z,50.24
2018-07-16T08:36:18.598Z,49.97
2018-07-16T08:37:18.565Z,49.66
2018-07-16T08:38:18.528Z,48.03
2018-07-16T08:39:18.486Z,48.61
2018-07-16T08:40:18.453Z,47.93
2018-07-16T08:41:18.410Z,47.18
2018-07-16T08:42:18.373Z,46.60
2018-07-16T08:43:18.338Z,46.79
2018-07-16T08:44:18.305Z,48.15
2018-07-16T08:45:18.262Z,46.41
2018-07-16T08:46:18.270Z,46.52
2018-07-16T08:47:18.187Z,45.17
2018-07-16T08:48:18.152Z,46.04
2018-07-16T08:49:18.119Z,44.87
2018-07-16T08:50:18.078Z,44.79
2018-07-16T08:51:18.039Z,44.79
2018-07-16T08:52:18.006Z,44.79
2018-07-16T08:53:17.971Z,44.60
2018-07-16T08:54:17.937Z,45.57
2018-07-16T08:55:17.898Z,44.79
2018-07-16T08:56:17.856Z,44.60
2018-07-16T08:57:17.819Z,44.53
2018-07-16T08:58:17.787Z,42.58
2018-07-16T08:59:17.838Z,42.78
2018-07-16T09:00:17.713Z,43.36
2018-07-16T09:01:17.671Z,44.72
2018-07-16T09:02:17.637Z,43.07
2018-07-16T09:03:17.599Z,43.67
2018-07-16T09:04:17.567Z,43.38
2018-07-16T09:05:17.531Z,41.93
2018-07-16T09:06:17.493Z,41.73
2018-07-16T09:07:17.643Z,42.02
2018-07-16T09:08:17.420Z,42.04
2018-07-16T09:09:17.384Z,40.39
2018-07-16T09:10:17.348Z,40.00
2018-07-16T09:11:17.337Z,40.48
2018-07-16T09:12:17.275Z,41.26
2018-07-16T09:13:17.361Z,40.11
2018-07-16T09:14:17.201Z,40.48
2018-07-16T09:15:17.164Z,40.50
2018-07-16T09:16:17.133Z,39.72
2018-07-16T09:17:17.093Z,38.85
2018-07-16T09:18:17.061Z,39.04
2018-07-16T09:19:17.051Z,39.65
2018-07-16T09:20:16.987Z,39.84
2018-07-16T09:21:16.954Z,39.55
2018-07-16T09:22:16.917Z,38.69
2018-07-16T09:23:16.884Z,37.62
2018-07-16T09:24:16.849Z,37.62
2018-07-16T09:25:16.814Z,38.10
2018-07-16T09:26:16.773Z,38.30
2018-07-16T09:27:16.737Z,38.10
2018-07-16T09:28:16.702Z,38.98
2018-07-16T09:29:16.667Z,38.22
2018-07-16T09:30:16.636Z,38.12
2018-07-16T09:31:16.594Z,37.05
2018-07-16T09:32:16.559Z,37.85
2018-07-16T09:33:16.524Z,38.04
2018-07-16T09:34:16.494Z,38.14
2018-07-16T09:35:16.458Z,37.46
2018-07-16T09:36:16.421Z,37.85
2018-07-16T09:37:16.385Z,37.07
2018-07-16T09:38:16.348Z,36.58
2018-07-16T09:39:16.313Z,36.98
2018-07-16T09:40:16.278Z,37.85
2018-07-16T09:41:16.245Z,37.55
2018-07-16T09:42:16.210Z,38.06
2018-07-16T09:43:16.171Z,37.37
2018-07-16T09:44:16.141Z,37.17
2018-07-16T09:45:16.105Z,36.88
2018-07-16T09:46:16.067Z,37.07
2018-07-16T09:47:16.032Z,35.41
2018-07-16T09:48:15.996Z,35.82
2018-07-16T09:49:15.963Z,36.02
2018-07-16T09:50:15.927Z,35.64
2018-07-16T09:51:15.893Z,35.25
2018-07-16T09:52:15.860Z,34.67
2018-07-16T09:53:15.822Z,35.35
2018-07-16T09:54:15.788Z,33.79
2018-07-16T09:55:15.759Z,34.28
2018-07-16T09:56:15.720Z,35.55
2018-07-16T09:57:15.684Z,35.45
2018-07-16T09:58:15.650Z,34.96
2018-07-16T09:59:15.619Z,34.97
2018-07-16T10:00:15.583Z,35.36
2018-07-16T10:01:15.546Z,34.88
2018-07-16T10:02:15.514Z,34.00
2018-07-16T10:03:15.478Z,34.29
2018-07-16T10:04:15.444Z,34.68
2018-07-16T10:05:15.409Z,34.09
2018-07-16T10:06:15.374Z,33.51
2018-07-16T10:07:15.345Z,34.00
2018-07-16T10:08:15.357Z,34.58
2018-07-16T10:09:15.274Z,33.41
2018-07-16T10:10:15.240Z,32.24
2018-07-16T10:11:15.207Z,33.43
2018-07-16T10:12:15.177Z,32.65
2018-07-16T10:13:15.140Z,34.31
2018-07-16T10:14:15.106Z,34.01
2018-07-16T10:15:15.068Z,34.50
2018-07-16T10:16:15.034Z,33.23
2018-07-16T10:17:14.997Z,32.75
2018-07-16T10:18:14.966Z,31.96
2018-07-16T10:19:14.931Z,32.94
2018-07-16T10:20:14.920Z,32.66
2018-07-16T10:21:14.872Z,33.54
2018-07-16T10:22:14.830Z,33.05
2018-07-16T10:23:14.798Z,33.15
2018-07-16T10:24:14.759Z,33.74
2018-07-16T10:25:14.729Z,33.84
2018-07-16T10:26:14.700Z,33.14
2018-07-16T10:27:14.661Z,33.23
2018-07-16T10:28:14.630Z,33.23
2018-07-16T10:29:14.596Z,33.82
2018-07-16T10:30:14.558Z,32.55
2018-07-16T10:31:14.523Z,33.04
2018-07-16T10:32:14.525Z,32.95
2018-07-16T10:33:14.460Z,33.25
2018-07-16T10:34:14.427Z,32.66
2018-07-16T10:35:14.387Z,32.56
2018-07-16T10:36:14.355Z,31.59
2018-07-16T10:37:14.320Z,31.90
2018-07-16T10:38:14.285Z,31.90
2018-07-16T10:39:14.273Z,31.51
2018-07-16T10:40:14.220Z,31.70
2018-07-16T10:41:14.185Z,31.70
2018-07-16T10:42:14.151Z,31.80
2018-07-16T10:43:14.120Z,31.80
2018-07-16T10:44:14.089Z,32.29
2018-07-16T10:45:14.050Z,31.80
2018-07-16T10:46:14.020Z,30.83
2018-07-16T10:47:13.987Z,30.93
2018-07-16T10:48:13.949Z,31.62
2018-07-16T10:49:13.917Z,31.71
2018-07-16T10:50:13.884Z,31.62
2018-07-16T10:51:13.849Z,31.81
2018-07-16T10:52:13.817Z,31.71
2018-07-16T10:53:13.915Z,31.81
2018-07-16T10:54:13.748Z,31.42
2018-07-16T10:55:13.765Z,31.13
2018-07-16T10:56:13.680Z,31.62
2018-07-16T10:57:13.655Z,32.01
2018-07-16T10:58:13.615Z,32.01
2018-07-16T10:59:13.580Z,31.71
2018-07-16T11:00:13.549Z,31.52
2018-07-16T11:01:13.516Z,31.52
2018-07-16T11:02:13.481Z,31.52
2018-07-16T11:03:13.449Z,31.03
2018-07-16T11:04:13.414Z,30.93
2018-07-16T11:05:13.386Z,30.93
2018-07-16T11:06:13.347Z,31.23
2018-07-16T11:07:13.313Z,30.54
2018-07-16T11:08:13.280Z,30.54
2018-07-16T11:09:13.249Z,30.54
2018-07-16T11:10:13.225Z,30.25
2018-07-16T11:11:13.179Z,29.85
2018-07-16T11:12:13.147Z,29.95
2018-07-16T11:13:13.113Z,29.85
2018-07-16T11:14:13.080Z,28.97
2018-07-16T11:15:13.052Z,30.05
2018-07-16T11:16:13.013Z,30.65
2018-07-16T11:17:12.985Z,29.58
2018-07-16T11:18:12.947Z,29.48
2018-07-16T11:19:12.914Z,28.59
2018-07-16T11:20:12.882Z,30.46
2018-07-16T11:21:12.851Z,29.79
2018-07-16T11:22:12.817Z,29.97
2018-07-16T11:23:12.780Z,29.97
2018-07-16T11:24:12.749Z,29.97
2018-07-16T11:25:12.717Z,30.07
2018-07-16T11:26:12.682Z,30.07
2018-07-16T11:27:12.650Z,29.87
2018-07-16T11:28:12.619Z,30.07
2018-07-16T11:29:12.584Z,29.58
2018-07-16T11:30:12.549Z,30.07
2018-07-16T11:31:12.541Z,29.97
2018-07-16T11:32:12.483Z,29.77
2018-07-16T11:33:12.450Z,29.68
2018-07-16T11:34:12.418Z,29.58
2018-07-16T11:35:12.389Z,29.97
2018-07-16T11:36:12.353Z,29.87
2018-07-16T11:37:12.351Z,29.97
2018-07-16T11:38:12.286Z,29.97
2018-07-16T11:39:12.251Z,28.99
2018-07-16T11:40:12.216Z,29.97
2018-07-16T11:41:12.188Z,30.16
2018-07-16T11:42:12.155Z,29.08
2018-07-16T11:43:12.120Z,29.68
2018-07-16T11:44:12.085Z,28.99
2018-07-16T11:45:12.054Z,29.58
2018-07-16T11:46:12.087Z,29.48
2018-07-16T11:47:11.998Z,29.48
2018-07-16T11:48:11.954Z,29.28
2018-07-16T11:49:11.921Z,29.38
2018-07-16T11:50:11.888Z,28.78
2018-07-16T11:51:11.860Z,28.58
2018-07-16T11:52:11.889Z,28.68
2018-07-16T11:53:11.790Z,28.67
2018-07-16T11:54:11.756Z,28.86
2018-07-16T11:55:11.722Z,28.86
2018-07-16T11:56:11.687Z,28.58
2018-07-16T11:57:11.657Z,27.61
2018-07-16T11:58:11.624Z,28.59
2018-07-16T11:59:11.656Z,27.73
2018-07-16T12:00:11.558Z,27.55
2018-07-16T12:01:11.522Z,27.26
2018-07-16T12:02:11.490Z,26.87
2018-07-16T12:03:11.459Z,26.50
2018-07-16T12:04:11.423Z,25.82
2018-07-16T12:05:11.445Z,25.16
2018-07-16T12:06:11.359Z,25.07
2018-07-16T12:07:11.322Z,24.69
2018-07-16T12:08:11.291Z,23.52
2018-07-16T12:09:11.254Z,23.14
2018-07-16T12:10:11.228Z,22.95
2018-07-16T12:11:11.193Z,23.06
2018-07-16T12:12:11.211Z,22.78
2018-07-16T12:13:11.132Z,22.19
2018-07-16T12:14:11.091Z,21.51
2018-07-16T12:15:11.060Z,21.82
2018-07-16T12:16:11.027Z,21.53
2018-07-16T12:17:10.995Z,21.14
2018-07-16T12:18:10.963Z,21.55
2018-07-16T12:19:10.927Z,20.95
2018-07-16T12:20:10.901Z,20.76
2018-07-16T12:21:10.862Z,20.27
2018-07-16T12:22:10.831Z,20.07
2018-07-16T12:23:10.799Z,19.98
2018-07-16T12:24:10.768Z,19.79
2018-07-16T12:25:10.741Z,19.41
2018-07-16T12:26:10.709Z,18.82
2018-07-16T12:27:10.673Z,18.73
2018-07-16T12:28:10.639Z,20.12
2018-07-16T12:29:10.609Z,19.64
2018-07-16T12:30:10.577Z,19.35
2018-07-16T12:31:10.544Z,18.46
2018-07-16T12:32:10.514Z,17.86
2018-07-16T12:33:10.481Z,17.37
2018-07-16T12:34:10.450Z,17.37
2018-07-16T12:35:10.423Z,17.36
2018-07-16T12:36:10.390Z,17.35
2018-07-16T12:37:10.358Z,17.74
2018-07-16T12:38:10.330Z,18.23
2018-07-16T12:39:10.297Z,19.21
2018-07-16T12:40:10.268Z,19.01
2018-07-16T12:41:10.239Z,19.29
2018-07-16T12:42:10.206Z,18.69
2018-07-16T12:43:10.176Z,19.07
2018-07-16T12:44:10.141Z,20.26
2018-07-16T12:45:10.112Z,19.85
2018-07-16T12:46:10.080Z,18.86
2018-07-16T12:47:10.047Z,19.06
2018-07-16T12:48:10.033Z,18.76
2018-07-16T12:49:09.986Z,19.15
2018-07-16T12:50:09.955Z,19.15
2018-07-16T12:51:09.922Z,19.63
2018-07-16T12:52:09.895Z,19.43
2018-07-16T12:53:09.863Z,19.23